Back to Top


Current Local METAR Station Weather Reports...

Local METAR Reports

Local METAR Reports

 

EGNJ - Humberside, United Kingdom
Distance from station: ESE 12mi, 20km
Updated: Fri, 02-Dec-2022 7:50pm GMT
Partly Cloudy
Partly Cloudy
 Wind from NE
Wind: NE 9 mph , 15 km/h
Temperature: 7°C
Wind Chill: 4°C
Dew Point: 5°C
Humidity: 87%
Barometer: 1028 hPa
Clouds: Partly Cloudy
Visibility: 6 miles , 10 km
Cloud details: Few Clouds 732 m
Partly Cloudy 1280 m
2022/12/02 19:50 EGNJ 021950Z AUTO 05008KT 9999 FEW024/// SCT042/// 07/05 Q1028
EGXV - Leconfield (aut), United Kingdom
Distance from station: NNE 16mi, 26km
Updated: Fri, 02-Dec-2022 7:50pm GMT
Partly Cloudy
Partly Cloudy
 Wind from NE
Wind: NE 5 mph , 7 km/h
Temperature: 4°C
Wind Chill: 2°C
Dew Point: 3°C
Humidity: 93%
Barometer: 1028 hPa
Clouds: Partly Cloudy
Visibility: 6 miles , 10 km
Cloud details: Partly Cloudy 640 m
2022/12/02 19:50 EGXV 021950Z AUTO 05004KT 9999 SCT021/// 04/03 Q1028
 
EGCN - Doncaster Sheffi, United Kingdom
Distance from station: SW 20mi, 32km
Updated: Wed, 30-Nov-2022 5:50pm GMT
NOT Current
Haze, Overcast
Haze, Overcast
 Wind from ESE
Wind: ESE 3 mph , 6 km/h
Temperature: 6°C
Dew Point: 5°C
Humidity: 93%
Barometer: 1028 hPa
Summary: Haze
Clouds: Overcast
Visibility: 3 miles , 5 km
Cloud details: Few Clouds 183 m
Overcast 610 m
2022/11/30 17:50 EGCN 301750Z 12003KT 5000 HZ FEW006 OVC020 06/05 Q1028
EGXP - Scampton Raf, United Kingdom
Distance from station: S 25mi, 39km
Updated: Tue, 01-Nov-2022 10:50am GMT
NOT Current

 Wind from SW
Wind: SW 22 mph , 35 km/h
Temperature: 14°C
Dew Point: 10°C
Humidity: 77%
Barometer: 1001 hPa
2022/11/01 10:50 EGXP 011050Z AUTO 22019KT //// // ///////// 14/10 Q1001
 
EGXW - Waddington Raf, United Kingdom
Distance from station: S 33mi, 53km
Updated: Fri, 02-Dec-2022 7:50pm GMT
Partly Cloudy
Partly Cloudy
 Wind from NNE
Wind: NNE 7 mph , 11 km/h
Temperature: 4°C
Wind Chill: 1°C
Dew Point: 3°C
Humidity: 93%
Barometer: 1027 hPa
Clouds: Partly Cloudy
Visibility: 6 miles , 10 km
Cloud details: Few Clouds 732 m
Partly Cloudy 1402 m
2022/12/02 19:50 EGXW 021950Z AUTO 02006KT 9999 FEW024/// SCT046/// 04/03 Q1027 REDZ
EGXS - Donna Nook Raf, United Kingdom
Distance from station: ESE 33mi, 54km
Updated: Fri, 02-Dec-2022 7:50pm GMT
Overcast
Overcast
 Wind from NE
Wind: NE 21 mph , 33 km/h
Temperature: 8°C
Wind Chill: 3°C
Dew Point: 4°C
Humidity: 76%
Barometer: 1027 hPa
Clouds: Overcast
Visibility: 6 miles , 10 km
Cloud details: Partly Cloudy 640 m
Overcast 1006 m
2022/12/02 19:50 EGXS 021950Z AUTO 05018KT 9999 SCT021/// OVC033/// 08/04 Q1027
 
EGXU - Linton-On-Ouse R, United Kingdom
Distance from station: NW 38mi, 61km
Updated: Mon, 04-Jul-2022 11:50am BST
NOT Current
Overcast
Overcast
 Wind from W
Wind: W 14 mph , 22 km/h
Temperature: 17°C
Dew Point: 9°C
Humidity: 59%
Barometer: 1020 hPa
Clouds: Overcast
Visibility: 6 miles , 10 km
Cloud details: Overcast 975 m
2022/07/04 10:50 EGXU 041050Z 28012KT 9999 OVC032 17/09 Q1020 RMK BLU
EGXC - Coningsby Raf, United Kingdom
Distance from station: SSE 42mi, 68km
Updated: Fri, 02-Dec-2022 7:50pm GMT
Partly Cloudy
Partly Cloudy
 Wind from N
Wind: N 7 mph , 11 km/h
Temperature: 5°C
Wind Chill: 2°C
Dew Point: 4°C
Humidity: 93%
Barometer: 1027 hPa
Clouds: Partly Cloudy
Visibility: 6 miles , 10 km
Cloud details: Few Clouds 762 m
Partly Cloudy 1372 m
2022/12/02 19:50 EGXC 021950Z 01006KT 9999 FEW025 SCT045 05/04 Q1027 RMK BLU
 
EGYD - Cranwell Raf, United Kingdom
Distance from station: S 43mi, 69km
Updated: Fri, 02-Dec-2022 7:50pm GMT
Mostly Cloudy
Mostly Cloudy
 Wind from NNE
Wind: NNE 8 mph , 13 km/h
Temperature: 5°C
Wind Chill: 2°C
Dew Point: 4°C
Humidity: 93%
Barometer: 1027 hPa
Clouds: Mostly Cloudy
Visibility: 6 miles , 10 km
Cloud details: Few Clouds 762 m
Mostly Cloudy 1250 m
2022/12/02 19:50 EGYD 021950Z AUTO 02007KT 9999 FEW025/// BKN041/// 05/04 Q1027
EGNM - Leeds And Bradfo, United Kingdom
Distance from station: WNW 44mi, 71km
Updated: Fri, 02-Dec-2022 7:50pm GMT
Partly Cloudy
Partly Cloudy
 Wind from ENE
Wind: ENE 6 mph , 9 km/h
Temperature: 4°C
Wind Chill: 2°C
Dew Point: 3°C
Humidity: 93%
Barometer: 1028 hPa
Clouds: Partly Cloudy
Visibility: 6 miles , 10 km
Cloud details: Partly Cloudy 1219 m
2022/12/02 19:50 EGNM 021950Z 06005KT 9999 SCT040 04/03 Q1028
 
EGXZ - Topcliffe Raf, United Kingdom
Distance from station: NW 49mi, 79km
Updated: Fri, 02-Dec-2022 7:50pm GMT
Mostly Cloudy
Mostly Cloudy
 Wind from ENE
Wind: ENE 8 mph , 13 km/h
Temperature: 3°C
Wind Chill: -1°C
Dew Point: 2°C
Humidity: 93%
Barometer: 1029 hPa
Clouds: Mostly Cloudy
Visibility: 6 miles , 10 km
Cloud details: Mostly Cloudy 1280 m
2022/12/02 19:50 EGXZ 021950Z AUTO 06007KT 9999 BKN042/// 03/02 Q1029
EGXE - Leeming Raf, United Kingdom
Distance from station: NW 57mi, 92km
Updated: Fri, 02-Dec-2022 7:50pm GMT
Mist, Mostly cloudy
Mist, Mostly cloudy
 Wind from N
Wind: N 3 mph , 6 km/h
Temperature: 4°C
Dew Point: 4°C
Humidity: 100%
Barometer: 1029 hPa
Summary: Mist
Clouds: Mostly Cloudy
Visibility: 5 miles , 8 km
Cloud details: Mostly Cloudy 1341 m
2022/12/02 19:50 EGXE 021950Z 01003KT 8000 BR BKN044 04/04 Q1029 NOSIG RMK BLU BLU
 
EGYH - Holbeach (aut), United Kingdom
Distance from station: SSE 63mi, 101km
Updated: Fri, 02-Dec-2022 7:50pm GMT
Overcast
Overcast
 Wind from ENE
Wind: ENE 17 mph , 28 km/h
Temperature: 7°C
Wind Chill: 3°C
Dew Point: 5°C
Humidity: 87%
Barometer: 1026 hPa
Clouds: Overcast
Visibility: 6 miles , 10 km
Cloud details: Overcast 945 m
2022/12/02 19:50 EGYH 021950Z AUTO 07015KT 9999 // OVC031/// 07/05 Q1026
EGNX - East Midlands, United Kingdom
Distance from station: SSW 65mi, 104km
Updated: Fri, 02-Dec-2022 7:50pm GMT
Partly Cloudy
Partly Cloudy
 Wind from NNE
Wind: NNE 6 mph , 9 km/h
Temperature: 4°C
Wind Chill: 2°C
Dew Point: 3°C
Humidity: 93%
Barometer: 1027 hPa
Clouds: Partly Cloudy
Visibility: 6 miles , 9 km
Cloud details: Partly Cloudy 1311 m
2022/12/02 19:50 EGNX 021950Z 02005KT 340V070 9000 SCT043 04/03 Q1027
 
EGNV - Tees-Side, United Kingdom
Distance from station: NNW 68mi, 109km
Updated: Fri, 02-Dec-2022 7:50pm GMT
Partly Cloudy
Partly Cloudy
 Wind from ENE
Wind: ENE 6 mph , 9 km/h
Temperature: 5°C
Wind Chill: 3°C
Dew Point: 3°C
Humidity: 87%
Barometer: 1029 hPa
Clouds: Partly Cloudy
Visibility: 6 miles , 10 km
Cloud details: Few Clouds 732 m
Partly Cloudy 914 m
2022/12/02 19:50 EGNV 021950Z 06005KT 9999 FEW024 SCT030 05/03 Q1029
EGCC - Manchester Intl, United Kingdom
Distance from station: WSW 71mi, 114km
Updated: Fri, 02-Dec-2022 7:50pm GMT
Clear
Clear
 Wind from NE
Wind: NE 5 mph , 7 km/h
Temperature: 6°C
Wind Chill: 4°C
Dew Point: 4°C
Humidity: 87%
Barometer: 1028 hPa
Clouds: Clear
Visibility: 6 miles , 10 km
2022/12/02 19:50 EGCC 021950Z AUTO 04004KT 9999 NCD 06/04 Q1028

Metar display script from Saratoga-Weather.org

Data updates at regular intervals.